createdAt,value
2023-02-02T00:01:47.680Z,39.92
2023-02-02T00:04:18.838Z,41.33
2023-02-02T00:06:47.379Z,40.70
2023-02-02T00:09:18.424Z,36.90
2023-02-02T00:11:48.627Z,40.28
2023-02-02T00:14:16.982Z,38.88
2023-02-02T00:16:55.512Z,35.80
2023-02-02T00:19:27.331Z,36.42
2023-02-02T00:21:56.223Z,35.22
2023-02-02T00:24:25.303Z,40.38
2023-02-02T00:26:57.338Z,36.20
2023-02-02T00:29:30.068Z,35.43
2023-02-02T00:31:59.022Z,38.75
2023-02-02T00:34:27.399Z,36.13
2023-02-02T00:36:56.644Z,34.53
2023-02-02T00:39:26.589Z,34.83
2023-02-02T00:41:56.255Z,37.85
2023-02-02T00:44:42.826Z,37.28
2023-02-02T00:47:11.153Z,35.50
2023-02-02T00:49:39.337Z,37.17
2023-02-02T00:52:07.520Z,35.05
2023-02-02T00:54:36.036Z,38.45
2023-02-02T00:57:04.505Z,36.03
2023-02-02T00:59:32.941Z,35.63
2023-02-02T01:02:02.490Z,37.22
2023-02-02T01:04:30.905Z,33.22
2023-02-02T01:06:58.833Z,35.92
2023-02-02T01:09:27.066Z,35.38
2023-02-02T01:11:55.234Z,33.17
2023-02-02T01:14:23.597Z,34.92
2023-02-02T01:16:52.022Z,35.83
2023-02-02T01:19:20.233Z,37.95
2023-02-02T01:21:51.269Z,34.63
2023-02-02T01:24:21.471Z,36.47
2023-02-02T01:26:49.680Z,35.85
2023-02-02T01:29:18.059Z,33.80
2023-02-02T01:31:48.097Z,36.63
2023-02-02T01:34:16.264Z,36.90
2023-02-02T01:36:44.365Z,35.55
2023-02-02T01:39:12.442Z,33.50
2023-02-02T01:41:42.515Z,35.13
2023-02-02T01:44:48.378Z,33.30
2023-02-02T01:47:16.540Z,34.83
2023-02-02T01:49:46.001Z,36.53
2023-02-02T01:52:17.507Z,37.13
2023-02-02T01:54:50.787Z,36.33
2023-02-02T01:57:31.838Z,35.33
2023-02-02T02:00:02.611Z,36.05
2023-02-02T02:02:45.289Z,36.65
2023-02-02T02:07:52.987Z,36.40
2023-02-02T02:10:21.629Z,35.53
2023-02-02T02:12:49.824Z,37.58
2023-02-02T02:15:36.730Z,35.03
2023-02-02T02:18:33.892Z,34.13
2023-02-02T02:21:59.638Z,35.25
2023-02-02T02:25:08.209Z,35.95
2023-02-02T02:27:48.719Z,36.95
2023-02-02T02:30:54.974Z,35.45
2023-02-02T02:33:37.145Z,34.20
2023-02-02T02:36:06.557Z,34.92
2023-02-02T02:38:53.315Z,34.05
2023-02-02T02:41:28.493Z,31.60
2023-02-02T02:44:01.790Z,35.08
2023-02-02T02:46:32.211Z,34.08
2023-02-02T02:49:02.027Z,33.45
2023-02-02T02:51:49.329Z,33.65
2023-02-02T02:54:31.574Z,32.55
2023-02-02T02:57:26.847Z,31.58
2023-02-02T03:00:07.159Z,32.38
2023-02-02T03:02:47.652Z,31.08
2023-02-02T03:05:56.814Z,32.05
2023-02-02T03:08:48.295Z,31.33
2023-02-02T03:11:17.322Z,32.10
2023-02-02T03:13:45.378Z,30.65
2023-02-02T03:16:15.979Z,31.50
2023-02-02T03:18:44.779Z,32.63
2023-02-02T03:21:13.405Z,32.70
2023-02-02T03:23:41.895Z,31.10
2023-02-02T03:26:10.292Z,30.95
2023-02-02T03:28:38.515Z,31.27
2023-02-02T03:31:07.144Z,32.05
2023-02-02T03:33:38.203Z,30.52
2023-02-02T03:36:07.099Z,32.72
2023-02-02T03:38:35.491Z,29.40
2023-02-02T03:41:05.381Z,30.08
2023-02-02T03:43:33.571Z,28.10
2023-02-02T03:46:04.787Z,31.25
2023-02-02T03:48:36.992Z,29.20
2023-02-02T03:51:10.101Z,31.40
2023-02-02T03:53:39.130Z,31.53
2023-02-02T03:56:08.181Z,34.00
2023-02-02T03:58:36.996Z,33.70
2023-02-02T04:01:06.967Z,34.35
2023-02-02T04:03:35.151Z,35.10
2023-02-02T04:06:03.369Z,33.30
2023-02-02T04:08:31.927Z,33.30
2023-02-02T04:11:00.223Z,33.05
2023-02-02T04:13:29.871Z,34.15
2023-02-02T04:16:01.374Z,34.08
2023-02-02T04:18:30.005Z,32.22
2023-02-02T04:21:02.361Z,35.45
2023-02-02T04:23:31.685Z,34.47
2023-02-02T04:26:00.811Z,35.88
2023-02-02T04:28:29.353Z,34.05
2023-02-02T04:30:57.836Z,34.92
2023-02-02T04:33:28.274Z,35.30
2023-02-02T04:35:56.791Z,34.90
2023-02-02T04:38:25.230Z,36.35
2023-02-02T04:40:53.357Z,33.10
2023-02-02T04:43:21.498Z,34.20
2023-02-02T04:45:55.568Z,35.72
2023-02-02T04:48:23.795Z,38.72
2023-02-02T04:50:51.908Z,38.75
2023-02-02T04:53:21.154Z,37.60
2023-02-02T04:55:49.330Z,38.03
2023-02-02T04:58:17.606Z,39.60
2023-02-02T05:00:46.089Z,37.55
2023-02-02T05:03:14.032Z,36.05
2023-02-02T05:05:41.964Z,38.80
2023-02-02T05:08:12.344Z,38.92
2023-02-02T05:10:42.165Z,36.75
2023-02-02T05:13:10.380Z,35.97
2023-02-02T05:15:38.521Z,39.25
2023-02-02T05:18:06.670Z,39.35
2023-02-02T05:20:34.919Z,37.45
2023-02-02T05:23:03.084Z,39.83
2023-02-02T05:25:31.483Z,42.38
2023-02-02T05:27:59.627Z,37.97
2023-02-02T05:30:27.818Z,37.05
2023-02-02T05:32:55.685Z,36.08
2023-02-02T05:35:24.079Z,36.70
2023-02-02T05:37:52.494Z,33.58
2023-02-02T05:40:20.801Z,32.47
2023-02-02T05:42:49.850Z,31.63
2023-02-02T05:45:18.013Z,31.38
2023-02-02T05:47:46.223Z,28.98
2023-02-02T05:50:14.635Z,28.60
2023-02-02T05:52:45.924Z,27.50
2023-02-02T05:55:14.020Z,27.60
2023-02-02T05:57:41.954Z,28.20
2023-02-02T06:00:11.155Z,26.42
2023-02-02T06:02:42.035Z,24.83
2023-02-02T06:05:10.078Z,25.00
2023-02-02T06:07:37.987Z,24.13
2023-02-02T06:10:06.192Z,22.65
2023-02-02T06:12:34.148Z,20.98
2023-02-02T06:15:02.039Z,21.05
2023-02-02T06:17:29.906Z,20.85
2023-02-02T06:19:57.786Z,17.55
2023-02-02T06:22:25.739Z,16.42
2023-02-02T06:24:53.694Z,16.15
2023-02-02T06:27:22.044Z,17.13
2023-02-02T06:29:50.300Z,15.52
2023-02-02T06:32:18.144Z,14.23
2023-02-02T06:34:46.083Z,15.32
2023-02-02T06:37:13.914Z,15.13
2023-02-02T06:39:41.974Z,14.43
2023-02-02T06:42:20.771Z,13.20
2023-02-02T06:44:49.972Z,12.70
2023-02-02T06:47:19.276Z,13.85
2023-02-02T06:49:47.117Z,15.48
2023-02-02T06:52:15.209Z,13.52
2023-02-02T06:54:43.345Z,13.07
2023-02-02T06:57:11.541Z,15.65
2023-02-02T06:59:41.372Z,15.00
2023-02-02T07:02:13.619Z,15.23
2023-02-02T07:04:41.573Z,15.77
2023-02-02T07:07:09.465Z,14.27
2023-02-02T07:09:37.500Z,15.00
2023-02-02T07:12:05.596Z,14.48
2023-02-02T07:14:33.635Z,13.32
2023-02-02T07:17:01.583Z,12.32
2023-02-02T07:19:29.491Z,30.92
2023-02-02T07:21:57.669Z,17.08
2023-02-02T07:24:25.602Z,11.77
2023-02-02T07:26:53.985Z,10.73
2023-02-02T07:29:22.010Z,12.50
2023-02-02T07:31:49.984Z,12.55
2023-02-02T07:34:18.266Z,12.55
2023-02-02T07:36:46.149Z,13.52
2023-02-02T07:39:14.150Z,12.48
2023-02-02T07:41:43.775Z,13.15
2023-02-02T07:44:23.885Z,12.38
2023-02-02T07:46:51.914Z,12.65
2023-02-02T07:49:20.560Z,13.13
2023-02-02T07:51:49.465Z,15.48
2023-02-02T07:54:17.367Z,13.13
2023-02-02T07:56:45.226Z,12.52
2023-02-02T07:59:13.270Z,14.48
2023-02-02T08:01:41.397Z,14.95
2023-02-02T08:04:09.364Z,14.25
2023-02-02T08:06:39.385Z,14.35
2023-02-02T08:09:09.284Z,13.82
2023-02-02T08:11:38.227Z,15.02
2023-02-02T08:14:07.033Z,16.50
2023-02-02T08:16:35.199Z,15.85
2023-02-02T08:19:03.669Z,18.42
2023-02-02T08:21:35.223Z,19.20
2023-02-02T08:24:04.726Z,19.83
2023-02-02T08:26:32.760Z,19.08
2023-02-02T08:29:07.816Z,20.02
2023-02-02T08:31:39.576Z,22.23
2023-02-02T08:34:07.811Z,23.80
2023-02-02T08:36:35.720Z,26.70
2023-02-02T08:39:08.921Z,27.67
2023-02-02T08:41:37.780Z,31.05
2023-02-02T08:44:11.394Z,28.45
2023-02-02T08:46:40.488Z,32.42
2023-02-02T08:49:12.192Z,32.05
2023-02-02T08:51:40.725Z,33.40
2023-02-02T08:54:08.755Z,30.77
2023-02-02T08:56:36.647Z,32.85
2023-02-02T08:59:05.585Z,36.33
2023-02-02T09:01:35.186Z,37.90
2023-02-02T09:04:08.467Z,33.35
2023-02-02T09:06:40.256Z,35.77
2023-02-02T09:09:11.728Z,38.00
2023-02-02T09:11:40.102Z,36.65
2023-02-02T09:14:10.319Z,35.67
2023-02-02T09:16:38.721Z,35.60
2023-02-02T09:19:07.046Z,35.45
2023-02-02T09:21:38.027Z,34.28
2023-02-02T09:24:10.971Z,36.00
2023-02-02T09:26:40.565Z,36.25
2023-02-02T09:29:12.655Z,34.40
2023-02-02T09:31:40.631Z,33.10
2023-02-02T09:34:11.717Z,33.42
2023-02-02T09:36:40.646Z,34.28
2023-02-02T09:39:09.052Z,32.88
2023-02-02T09:41:39.857Z,34.47
2023-02-02T09:44:29.215Z,32.55
2023-02-02T09:47:30.493Z,33.70
2023-02-02T09:50:33.556Z,34.80
2023-02-02T09:53:13.289Z,32.22
2023-02-02T09:55:44.477Z,30.88
2023-02-02T09:58:15.016Z,32.33
2023-02-02T10:01:07.031Z,31.65
2023-02-02T10:03:45.427Z,29.38
2023-02-02T10:06:22.189Z,27.08
2023-02-02T10:08:55.599Z,27.02
2023-02-02T10:11:30.921Z,26.83
2023-02-02T10:14:15.439Z,25.58
2023-02-02T10:19:14.274Z,23.30
2023-02-02T10:22:18.123Z,23.55
2023-02-02T10:24:46.289Z,20.17
2023-02-02T10:27:27.076Z,20.95
2023-02-02T10:30:02.340Z,19.90
2023-02-02T10:33:02.379Z,17.95
2023-02-02T10:35:45.766Z,16.55
2023-02-02T10:38:44.117Z,15.43
2023-02-02T10:41:26.797Z,16.25
2023-02-02T10:44:21.637Z,14.38
2023-02-02T10:49:24.663Z,15.95
2023-02-02T10:51:59.180Z,15.87
2023-02-02T10:54:55.805Z,14.43
2023-02-02T10:57:34.769Z,15.75
2023-02-02T11:00:06.671Z,14.77
2023-02-02T11:02:35.071Z,15.43
2023-02-02T11:05:21.278Z,14.73
2023-02-02T11:07:50.251Z,15.38
2023-02-02T11:10:18.148Z,13.60
2023-02-02T11:12:53.208Z,13.23
2023-02-02T11:15:28.646Z,12.18
2023-02-02T11:17:56.745Z,12.10
2023-02-02T11:20:34.562Z,9.98
2023-02-02T11:23:05.011Z,10.75
2023-02-02T11:25:39.460Z,9.43
2023-02-02T11:28:24.313Z,8.75
2023-02-02T11:30:53.556Z,8.35
2023-02-02T11:33:29.034Z,8.45
2023-02-02T11:36:00.698Z,8.05
2023-02-02T11:38:29.744Z,8.18
2023-02-02T11:41:17.273Z,7.78
2023-02-02T11:43:56.742Z,8.82
2023-02-02T11:46:29.205Z,8.30
2023-02-02T11:49:01.944Z,8.32
2023-02-02T11:51:31.431Z,6.40
2023-02-02T11:54:15.461Z,8.23
2023-02-02T11:56:49.200Z,5.43
2023-02-02T11:59:39.468Z,4.07
2023-02-02T12:02:27.780Z,2.70
2023-02-02T12:05:17.462Z,2.72
2023-02-02T12:07:45.794Z,1.88
2023-02-02T12:10:19.709Z,1.60
2023-02-02T12:13:14.693Z,1.85
2023-02-02T12:16:20.063Z,1.40
2023-02-02T12:18:56.493Z,1.48
2023-02-02T12:22:01.858Z,1.33
2023-02-02T12:24:34.509Z,2.15
2023-02-02T12:27:08.947Z,2.22
2023-02-02T12:29:45.571Z,1.60
2023-02-02T12:32:50.224Z,1.70
2023-02-02T12:35:36.461Z,1.77
2023-02-02T12:38:27.245Z,1.90
2023-02-02T12:41:33.301Z,3.67
2023-02-02T12:44:24.617Z,4.75
2023-02-02T12:47:29.862Z,5.55
2023-02-02T12:52:46.360Z,6.88
2023-02-02T12:55:39.083Z,6.57
2023-02-02T12:58:13.513Z,6.30
2023-02-02T13:00:57.705Z,5.70
2023-02-02T13:03:53.640Z,5.10
2023-02-02T13:06:38.618Z,4.88
2023-02-02T13:09:14.770Z,3.50
2023-02-02T13:11:51.297Z,4.03
2023-02-02T13:14:31.149Z,3.75
2023-02-02T13:17:12.408Z,4.15
2023-02-02T13:19:45.483Z,4.97
2023-02-02T13:22:22.514Z,5.25
2023-02-02T13:24:53.341Z,6.07
2023-02-02T13:27:23.772Z,5.38
2023-02-02T13:30:02.374Z,5.63
2023-02-02T13:32:37.376Z,5.68
2023-02-02T13:35:23.593Z,5.38
2023-02-02T13:38:00.758Z,5.05
2023-02-02T13:40:33.574Z,5.18
2023-02-02T13:43:05.046Z,4.57
2023-02-02T13:46:09.471Z,5.43
2023-02-02T13:48:44.947Z,5.50
2023-02-02T13:51:41.445Z,5.47
2023-02-02T13:54:45.828Z,5.82
2023-02-02T13:57:31.983Z,6.13
2023-02-02T14:00:16.074Z,5.60
2023-02-02T14:02:49.564Z,6.47
2023-02-02T14:08:19.180Z,8.55
2023-02-02T14:10:53.160Z,9.20
2023-02-02T14:13:44.455Z,10.35
2023-02-02T14:16:35.564Z,9.90
2023-02-02T14:19:06.680Z,9.77
2023-02-02T14:21:34.977Z,10.35
2023-02-02T14:24:24.524Z,10.10
2023-02-02T14:26:58.037Z,10.38
2023-02-02T14:29:31.948Z,10.27
2023-02-02T14:32:07.384Z,11.52
2023-02-02T14:34:43.529Z,10.63
2023-02-02T14:37:17.639Z,11.35
2023-02-02T14:40:06.638Z,10.75
2023-02-02T14:43:14.340Z,11.00
2023-02-02T14:45:48.388Z,11.30
2023-02-02T14:48:18.007Z,11.00
2023-02-02T14:50:53.639Z,11.32
2023-02-02T14:53:48.454Z,12.45
2023-02-02T14:56:26.425Z,11.10
2023-02-02T14:59:04.833Z,12.23
2023-02-02T15:01:39.007Z,12.93
2023-02-02T15:04:27.992Z,12.68
2023-02-02T15:07:23.977Z,14.13
2023-02-02T15:09:59.264Z,12.57
2023-02-02T15:13:03.475Z,17.02
2023-02-02T15:15:39.586Z,15.73
2023-02-02T15:18:18.048Z,12.35
2023-02-02T15:20:50.205Z,12.48
2023-02-02T15:23:31.528Z,11.13
2023-02-02T15:26:35.611Z,10.88
2023-02-02T15:29:14.013Z,9.07
2023-02-02T15:31:53.882Z,9.63
2023-02-02T15:34:25.304Z,8.35
2023-02-02T15:36:57.165Z,7.85
2023-02-02T15:39:42.244Z,6.65
2023-02-02T15:42:54.678Z,5.32
2023-02-02T15:45:29.469Z,5.00
2023-02-02T15:48:00.085Z,4.80
2023-02-02T15:50:47.059Z,5.25
2023-02-02T15:53:26.133Z,5.68
2023-02-02T15:55:55.575Z,5.97
2023-02-02T15:58:33.122Z,5.00
2023-02-02T16:01:15.878Z,5.00
2023-02-02T16:03:58.724Z,4.95
2023-02-02T16:06:26.866Z,5.43
2023-02-02T16:08:54.851Z,4.72
2023-02-02T16:11:24.099Z,5.32
2023-02-02T16:14:01.983Z,4.40
2023-02-02T16:16:40.348Z,4.57
2023-02-02T16:19:26.456Z,5.03
2023-02-02T16:21:58.698Z,5.03
2023-02-02T16:24:29.973Z,5.05
2023-02-02T16:27:05.039Z,5.13
2023-02-02T16:29:35.160Z,5.38
2023-02-02T16:32:05.223Z,5.15
2023-02-02T16:34:53.296Z,5.05
2023-02-02T16:37:22.762Z,6.07
2023-02-02T16:39:50.677Z,6.55
2023-02-02T16:42:30.978Z,5.65
2023-02-02T16:45:00.807Z,6.18
2023-02-02T16:47:29.786Z,5.80
2023-02-02T16:50:09.784Z,6.03
2023-02-02T16:52:57.369Z,6.43
2023-02-02T16:55:43.665Z,6.82
2023-02-02T16:58:22.669Z,8.50
2023-02-02T17:01:20.197Z,7.57
2023-02-02T17:03:54.405Z,6.63
2023-02-02T17:09:37.060Z,8.60
2023-02-02T17:12:30.755Z,9.38
2023-02-02T17:15:29.303Z,6.80
2023-02-02T17:17:58.327Z,7.35
2023-02-02T17:20:27.841Z,6.85
2023-02-02T17:23:03.585Z,7.28
2023-02-02T17:25:37.355Z,6.78
2023-02-02T17:28:11.486Z,7.30
2023-02-02T17:33:18.306Z,7.00
2023-02-02T17:35:55.045Z,6.72
2023-02-02T17:38:25.136Z,7.32
2023-02-02T17:40:54.171Z,7.22
2023-02-02T17:43:22.322Z,8.38
2023-02-02T17:45:50.718Z,8.00
2023-02-02T17:48:18.575Z,8.10
2023-02-02T17:50:46.674Z,11.63
2023-02-02T17:53:17.902Z,9.82
2023-02-02T17:55:46.891Z,8.95
2023-02-02T17:58:17.285Z,10.68
2023-02-02T18:00:53.448Z,11.20
2023-02-02T18:03:27.997Z,13.52
2023-02-02T18:05:57.912Z,12.65
2023-02-02T18:08:25.873Z,12.32
2023-02-02T18:10:54.151Z,10.40
2023-02-02T18:13:24.066Z,10.43
2023-02-02T18:15:53.074Z,11.07
2023-02-02T18:18:21.018Z,10.93
2023-02-02T18:20:50.586Z,11.10
2023-02-02T18:23:19.364Z,12.18
2023-02-02T18:25:47.499Z,11.00
2023-02-02T18:28:17.908Z,10.48
2023-02-02T18:30:47.483Z,11.27
2023-02-02T18:33:19.969Z,13.05
2023-02-02T18:35:48.816Z,13.63
2023-02-02T18:38:18.210Z,11.82
2023-02-02T18:40:46.097Z,11.50
2023-02-02T18:43:13.954Z,11.35
2023-02-02T18:45:41.864Z,11.43
2023-02-02T18:48:09.707Z,11.23
2023-02-02T18:50:37.604Z,10.43
2023-02-02T18:53:06.722Z,11.13
2023-02-02T18:55:37.154Z,11.07
2023-02-02T18:58:10.776Z,13.02
2023-02-02T19:00:38.664Z,12.73
2023-02-02T19:03:06.762Z,14.00
2023-02-02T19:05:53.324Z,14.30
2023-02-02T19:08:22.368Z,13.35
2023-02-02T19:10:58.936Z,12.75
2023-02-02T19:13:29.259Z,12.07
2023-02-02T19:15:59.639Z,11.55
2023-02-02T19:18:27.668Z,12.98
2023-02-02T19:20:55.526Z,13.55
2023-02-02T19:23:29.222Z,12.55
2023-02-02T19:25:57.181Z,11.43
2023-02-02T19:28:28.423Z,11.23
2023-02-02T19:30:58.883Z,13.55
2023-02-02T19:33:39.863Z,15.15
2023-02-02T19:36:16.952Z,13.82
2023-02-02T19:38:46.056Z,12.82
2023-02-02T19:41:23.167Z,13.85
2023-02-02T19:43:58.724Z,12.98
2023-02-02T19:46:30.029Z,13.02
2023-02-02T19:49:18.540Z,13.52
2023-02-02T19:51:48.828Z,12.85
2023-02-02T19:54:41.021Z,13.05
2023-02-02T19:57:17.454Z,14.30
2023-02-02T19:59:50.785Z,14.98
2023-02-02T20:02:34.080Z,15.40
2023-02-02T20:05:21.762Z,15.38
2023-02-02T20:07:58.140Z,14.50
2023-02-02T20:10:34.374Z,15.80
2023-02-02T20:13:12.837Z,15.52
2023-02-02T20:15:40.954Z,16.50
2023-02-02T20:18:42.772Z,18.13
2023-02-02T20:21:22.850Z,18.88
2023-02-02T20:23:51.914Z,18.50
2023-02-02T20:26:30.008Z,21.73
2023-02-02T20:29:01.840Z,24.45
2023-02-02T20:31:40.990Z,24.50
2023-02-02T20:34:27.880Z,25.80
2023-02-02T20:37:20.108Z,23.73
2023-02-02T20:40:03.128Z,26.15
2023-02-02T20:42:32.059Z,30.08
2023-02-02T20:45:00.300Z,26.67
2023-02-02T20:47:29.366Z,30.13
2023-02-02T20:50:01.639Z,28.55
2023-02-02T20:52:39.472Z,28.45
2023-02-02T20:55:08.422Z,29.15
2023-02-02T20:57:40.514Z,28.52
2023-02-02T21:00:12.174Z,30.67
2023-02-02T21:02:40.420Z,30.90
2023-02-02T21:05:09.505Z,28.48
2023-02-02T21:07:37.976Z,28.98
2023-02-02T21:10:06.645Z,28.00
2023-02-02T21:12:34.764Z,28.42
2023-02-02T21:15:04.163Z,29.27
2023-02-02T21:17:32.703Z,28.10
2023-02-02T21:20:00.524Z,28.05
2023-02-02T21:22:28.388Z,28.63
2023-02-02T21:24:56.317Z,28.00
2023-02-02T21:27:24.468Z,29.50
2023-02-02T21:29:52.518Z,30.25
2023-02-02T21:32:20.473Z,30.60
2023-02-02T21:34:49.866Z,31.17
2023-02-02T21:37:18.045Z,33.33
2023-02-02T21:39:51.187Z,31.40
2023-02-02T21:42:23.093Z,33.75
2023-02-02T21:44:59.450Z,35.55
2023-02-02T21:47:30.404Z,35.00
2023-02-02T21:50:11.160Z,34.35
2023-02-02T21:52:39.716Z,36.70
2023-02-02T21:55:29.496Z,35.33
2023-02-02T21:57:59.309Z,35.33
2023-02-02T22:00:33.772Z,34.97
2023-02-02T22:03:02.930Z,33.97
2023-02-02T22:05:36.346Z,32.83
2023-02-02T22:08:28.969Z,32.08
2023-02-02T22:10:57.295Z,33.50
2023-02-02T22:13:26.737Z,38.50
2023-02-02T22:15:54.798Z,35.15
2023-02-02T22:18:25.084Z,32.63
2023-02-02T22:20:56.757Z,34.78
2023-02-02T22:23:28.441Z,36.85
2023-02-02T22:25:58.528Z,35.15
2023-02-02T22:28:32.693Z,34.25
2023-02-02T22:33:28.998Z,35.17
2023-02-02T22:35:57.485Z,37.38
2023-02-02T22:38:26.487Z,36.40
